createdAt,value
2023-03-11T00:00:50.404Z,99.90
2023-03-11T00:03:23.113Z,99.90
2023-03-11T00:05:54.184Z,99.90
2023-03-11T00:08:25.514Z,99.90
2023-03-11T00:10:56.175Z,99.90
2023-03-11T00:13:24.700Z,99.90
2023-03-11T00:15:56.290Z,99.90
2023-03-11T00:18:27.013Z,99.90
2023-03-11T00:20:58.472Z,99.90
2023-03-11T00:23:28.644Z,99.90
2023-03-11T00:25:59.736Z,99.90
2023-03-11T00:28:27.911Z,99.90
2023-03-11T00:30:56.233Z,99.90
2023-03-11T00:33:25.111Z,99.90
2023-03-11T00:35:53.208Z,99.90
2023-03-11T00:38:22.859Z,99.90
2023-03-11T00:40:51.688Z,99.90
2023-03-11T00:43:20.065Z,99.90
2023-03-11T00:45:48.543Z,99.90
2023-03-11T00:48:16.769Z,99.90
2023-03-11T00:50:45.153Z,99.90
2023-03-11T00:53:13.761Z,99.90
2023-03-11T00:55:43.181Z,99.90
2023-03-11T00:58:13.457Z,99.90
2023-03-11T01:00:42.038Z,99.90
2023-03-11T01:03:10.299Z,99.90
2023-03-11T01:05:38.563Z,99.90
2023-03-11T01:08:06.719Z,99.90
2023-03-11T01:10:59.744Z,99.90
2023-03-11T01:13:31.493Z,99.90
2023-03-11T01:16:01.223Z,99.90
2023-03-11T01:18:30.056Z,99.90
2023-03-11T01:20:58.524Z,99.90
2023-03-11T01:23:27.401Z,99.90
2023-03-11T01:25:56.016Z,99.90
2023-03-11T01:28:24.438Z,99.90
2023-03-11T01:30:54.355Z,99.90
2023-03-11T01:33:22.826Z,99.90
2023-03-11T01:35:53.448Z,99.90
2023-03-11T01:38:21.761Z,99.90
2023-03-11T01:40:52.888Z,99.90
2023-03-11T01:43:52.052Z,99.90
2023-03-11T01:46:23.787Z,99.90
2023-03-11T01:48:54.902Z,99.90
2023-03-11T01:51:33.168Z,99.90
2023-03-11T01:54:08.462Z,99.90
2023-03-11T01:56:37.437Z,99.90
2023-03-11T01:59:07.534Z,99.90
2023-03-11T02:01:47.270Z,99.90
2023-03-11T02:04:17.375Z,99.90
2023-03-11T02:06:46.329Z,99.90
2023-03-11T02:09:14.608Z,99.90
2023-03-11T02:11:43.332Z,99.90
2023-03-11T02:14:12.199Z,99.90
2023-03-11T02:16:41.957Z,99.90
2023-03-11T02:19:22.406Z,99.90
2023-03-11T02:21:51.352Z,99.90
2023-03-11T02:24:29.334Z,99.90
2023-03-11T02:27:02.715Z,99.90
2023-03-11T02:29:33.185Z,99.90
2023-03-11T02:32:08.949Z,99.90
2023-03-11T02:34:40.669Z,99.90
2023-03-11T02:37:12.324Z,99.90
2023-03-11T02:39:43.656Z,99.90
2023-03-11T02:42:18.811Z,99.90
2023-03-11T02:44:56.970Z,99.90
2023-03-11T02:47:25.801Z,99.90
2023-03-11T02:49:57.377Z,99.90
2023-03-11T02:52:29.318Z,99.90
2023-03-11T02:54:57.566Z,99.90
2023-03-11T02:57:27.545Z,99.90
2023-03-11T02:59:55.915Z,99.90
2023-03-11T03:02:24.228Z,99.90
2023-03-11T03:04:52.523Z,99.90
2023-03-11T03:07:20.806Z,99.90
2023-03-11T03:09:49.094Z,99.90
2023-03-11T03:12:17.384Z,99.90
2023-03-11T03:14:47.097Z,99.90
2023-03-11T03:17:15.447Z,99.90
2023-03-11T03:19:43.649Z,99.90
2023-03-11T03:22:12.007Z,99.90
2023-03-11T03:24:48.884Z,99.90
2023-03-11T03:27:17.155Z,99.90
2023-03-11T03:29:47.068Z,99.90
2023-03-11T03:32:15.376Z,99.90
2023-03-11T03:34:43.590Z,99.90
2023-03-11T03:37:11.790Z,99.90
2023-03-11T03:39:40.459Z,99.90
2023-03-11T03:42:09.136Z,99.90
2023-03-11T03:44:37.399Z,99.90
2023-03-11T03:47:07.543Z,99.90
2023-03-11T03:49:35.885Z,99.90
2023-03-11T03:52:06.468Z,99.90
2023-03-11T03:54:34.795Z,99.90
2023-03-11T03:57:03.156Z,99.90
2023-03-11T03:59:31.839Z,99.90
2023-03-11T04:02:00.737Z,99.90
2023-03-11T04:04:31.136Z,99.90
2023-03-11T04:06:59.742Z,99.90
2023-03-11T04:09:28.277Z,99.90
2023-03-11T04:11:56.514Z,99.90
2023-03-11T04:14:24.923Z,99.90
2023-03-11T04:16:53.806Z,99.90
2023-03-11T04:19:22.208Z,99.90
2023-03-11T04:21:52.692Z,99.90
2023-03-11T04:24:21.062Z,99.90
2023-03-11T04:26:49.526Z,99.90
2023-03-11T04:29:17.900Z,99.90
2023-03-11T04:31:46.131Z,99.90
2023-03-11T04:34:14.821Z,99.90
2023-03-11T04:36:43.232Z,99.90
2023-03-11T04:39:13.687Z,99.90
2023-03-11T04:41:42.149Z,99.90
2023-03-11T04:44:10.326Z,99.90
2023-03-11T04:46:39.042Z,99.90
2023-03-11T04:49:07.329Z,99.90
2023-03-11T04:51:35.755Z,99.90
2023-03-11T04:54:04.306Z,99.90
2023-03-11T04:56:36.766Z,99.90
2023-03-11T04:59:04.862Z,99.90
2023-03-11T05:01:33.018Z,99.90
2023-03-11T05:04:01.129Z,99.90
2023-03-11T05:06:29.190Z,99.90
2023-03-11T05:08:57.229Z,99.90
2023-03-11T05:11:25.274Z,99.90
2023-03-11T05:13:54.722Z,99.90
2023-03-11T05:16:23.148Z,99.90
2023-03-11T05:18:55.446Z,99.90
2023-03-11T05:21:23.676Z,99.90
2023-03-11T05:23:51.940Z,99.90
2023-03-11T05:26:20.958Z,99.90
2023-03-11T05:28:49.036Z,99.90
2023-03-11T05:31:18.629Z,99.90
2023-03-11T05:33:46.776Z,99.90
2023-03-11T05:36:15.035Z,99.90
2023-03-11T05:38:43.100Z,99.90
2023-03-11T05:41:11.246Z,99.90
2023-03-11T05:43:39.317Z,99.90
2023-03-11T05:46:07.359Z,99.90
2023-03-11T05:48:37.297Z,99.90
2023-03-11T05:51:08.470Z,99.90
2023-03-11T05:53:37.214Z,99.90
2023-03-11T05:56:06.498Z,99.90
2023-03-11T05:58:35.014Z,99.90
2023-03-11T06:01:08.990Z,99.90
2023-03-11T06:03:38.560Z,99.90
2023-03-11T06:06:08.765Z,99.90
2023-03-11T06:08:38.675Z,99.90
2023-03-11T06:11:11.920Z,99.90
2023-03-11T06:13:40.020Z,99.90
2023-03-11T06:16:09.121Z,99.90
2023-03-11T06:18:38.534Z,99.90
2023-03-11T06:21:08.500Z,99.90
2023-03-11T06:23:36.613Z,99.90
2023-03-11T06:26:06.786Z,99.90
2023-03-11T06:28:34.963Z,99.90
2023-03-11T06:31:09.820Z,99.90
2023-03-11T06:33:39.313Z,99.90
2023-03-11T06:36:09.010Z,99.90
2023-03-11T06:38:37.533Z,99.90
2023-03-11T06:41:07.964Z,99.90
2023-03-11T06:43:37.083Z,99.90
2023-03-11T06:46:10.522Z,99.90
2023-03-11T06:48:40.627Z,99.90
2023-03-11T06:51:09.209Z,99.90
2023-03-11T06:53:37.577Z,99.90
2023-03-11T06:56:09.079Z,99.90
2023-03-11T06:58:40.058Z,99.90
2023-03-11T07:01:13.798Z,99.90
2023-03-11T07:03:43.684Z,99.90
2023-03-11T07:06:16.506Z,99.90
2023-03-11T07:08:45.024Z,99.90
2023-03-11T07:11:16.525Z,99.90
2023-03-11T07:13:45.756Z,99.90
2023-03-11T07:16:16.986Z,99.90
2023-03-11T07:18:49.129Z,99.90
2023-03-11T07:21:21.781Z,99.90
2023-03-11T07:23:54.774Z,99.90
2023-03-11T07:26:25.322Z,99.90
2023-03-11T07:28:56.059Z,99.90
2023-03-11T07:31:27.578Z,99.90
2023-03-11T07:33:59.533Z,99.90
2023-03-11T07:36:29.103Z,99.90
2023-03-11T07:39:01.080Z,99.90
2023-03-11T07:41:32.397Z,99.90
2023-03-11T07:44:05.316Z,99.90
2023-03-11T07:46:34.523Z,99.90
2023-03-11T07:49:04.295Z,99.90
2023-03-11T07:51:36.262Z,99.90
2023-03-11T07:54:05.594Z,99.90
2023-03-11T07:56:36.088Z,99.90
2023-03-11T07:59:07.949Z,84.30
2023-03-11T08:01:40.550Z,65.40
2023-03-11T08:04:14.464Z,72.90
2023-03-11T08:06:45.261Z,65.00
2023-03-11T08:09:14.914Z,49.00
2023-03-11T08:11:43.545Z,41.60
2023-03-11T08:14:11.817Z,29.60
2023-03-11T08:16:41.958Z,33.00
2023-03-11T08:19:14.298Z,27.50
2023-03-11T08:21:42.342Z,28.60
2023-03-11T08:24:13.844Z,28.20
2023-03-11T08:26:42.765Z,28.20
2023-03-11T08:29:11.511Z,24.40
2023-03-11T08:31:39.576Z,22.10
2023-03-11T08:34:11.312Z,23.80
2023-03-11T08:36:40.788Z,22.10
2023-03-11T08:39:09.414Z,26.30
2023-03-11T08:41:37.473Z,18.00
2023-03-11T08:44:05.843Z,20.10
2023-03-11T08:46:36.616Z,20.00
2023-03-11T08:49:06.368Z,17.60
2023-03-11T08:51:36.284Z,17.50
2023-03-11T08:54:06.656Z,19.40
2023-03-11T08:56:35.144Z,18.90
2023-03-11T08:59:03.947Z,18.20
2023-03-11T09:01:32.262Z,17.50
2023-03-11T09:04:00.250Z,19.30
2023-03-11T09:06:30.515Z,17.70
2023-03-11T09:08:59.234Z,16.10
2023-03-11T09:11:28.624Z,17.40
2023-03-11T09:13:56.705Z,15.90
2023-03-11T09:16:25.698Z,15.50
2023-03-11T09:18:54.023Z,17.80
2023-03-11T09:21:22.192Z,18.30
2023-03-11T09:23:50.265Z,21.20
2023-03-11T09:26:18.379Z,21.80
2023-03-11T09:28:49.309Z,22.30
2023-03-11T09:31:18.077Z,19.30
2023-03-11T09:33:47.418Z,18.10
2023-03-11T09:36:18.141Z,16.70
2023-03-11T09:38:46.682Z,13.50
2023-03-11T09:41:28.308Z,14.20
2023-03-11T09:44:21.727Z,16.00
2023-03-11T09:47:25.726Z,16.40
2023-03-11T09:50:21.452Z,12.90
2023-03-11T09:53:04.313Z,11.60
2023-03-11T09:55:39.931Z,11.80
2023-03-11T09:58:18.798Z,7.70
2023-03-11T10:00:49.589Z,8.70
2023-03-11T10:03:34.104Z,6.20
2023-03-11T10:06:16.288Z,5.90
2023-03-11T10:08:56.284Z,6.60
2023-03-11T10:11:59.106Z,6.60
2023-03-11T10:14:49.807Z,7.10
2023-03-11T10:17:40.654Z,8.80
2023-03-11T10:24:17.662Z,11.60
2023-03-11T10:26:53.723Z,8.80
2023-03-11T10:29:28.582Z,8.80
2023-03-11T10:32:07.383Z,10.00
2023-03-11T10:34:45.902Z,9.70
2023-03-11T10:37:21.449Z,10.00
2023-03-11T10:39:50.168Z,11.90
2023-03-11T10:42:26.920Z,12.20
2023-03-11T10:44:55.984Z,13.00
2023-03-11T10:47:27.517Z,14.00
2023-03-11T10:50:00.546Z,11.30
2023-03-11T10:52:28.888Z,7.50
2023-03-11T10:55:03.745Z,7.10
2023-03-11T10:57:38.233Z,6.60
2023-03-11T11:00:12.424Z,7.20
2023-03-11T11:02:51.930Z,5.50
2023-03-11T11:05:32.708Z,6.10
2023-03-11T11:08:09.682Z,3.30
2023-03-11T11:10:40.237Z,3.20
2023-03-11T11:13:20.944Z,3.90
2023-03-11T11:16:00.200Z,2.70
2023-03-11T11:18:34.688Z,1.80
2023-03-11T11:21:09.506Z,1.10
2023-03-11T11:23:45.156Z,1.60
2023-03-11T11:26:20.473Z,2.20
2023-03-11T11:29:08.968Z,1.80
2023-03-11T11:31:39.153Z,3.30
2023-03-11T11:34:30.898Z,6.00
2023-03-11T11:37:05.196Z,5.00
2023-03-11T11:39:51.551Z,6.10
2023-03-11T11:42:22.169Z,7.20
2023-03-11T11:44:58.561Z,7.50
2023-03-11T11:47:34.730Z,8.20
2023-03-11T11:50:07.286Z,8.10
2023-03-11T11:52:48.340Z,9.10
2023-03-11T11:55:23.506Z,9.40
2023-03-11T11:57:53.967Z,9.70
2023-03-11T12:00:28.131Z,7.50
2023-03-11T12:03:21.754Z,6.80
2023-03-11T12:05:58.994Z,7.70
2023-03-11T12:08:40.910Z,9.20
2023-03-11T12:11:18.614Z,10.90
2023-03-11T12:14:03.269Z,7.20
2023-03-11T12:16:43.892Z,7.70
2023-03-11T12:19:25.115Z,5.80
2023-03-11T12:22:29.170Z,5.00
2023-03-11T12:25:22.144Z,4.70
2023-03-11T12:27:59.498Z,4.50
2023-03-11T12:30:33.124Z,4.80
2023-03-11T12:33:06.426Z,3.10
2023-03-11T12:35:37.096Z,3.60
2023-03-11T12:38:19.095Z,1.90
2023-03-11T12:41:08.841Z,2.80
2023-03-11T12:44:02.617Z,3.10
2023-03-11T12:47:20.577Z,4.50
2023-03-11T12:49:51.741Z,3.70
2023-03-11T12:52:53.890Z,3.80
2023-03-11T12:55:35.371Z,4.60
2023-03-11T12:58:55.828Z,4.80
2023-03-11T13:01:57.803Z,4.70
2023-03-11T13:05:00.218Z,4.10
2023-03-11T13:07:48.993Z,5.50
2023-03-11T13:10:36.781Z,6.70
2023-03-11T13:13:33.168Z,6.30
2023-03-11T13:16:40.600Z,5.90
2023-03-11T13:19:48.916Z,5.50
2023-03-11T13:23:11.008Z,5.90
2023-03-11T13:25:42.760Z,6.30
2023-03-11T13:28:38.491Z,7.30
2023-03-11T13:31:35.866Z,7.40
2023-03-11T13:34:15.899Z,8.50
2023-03-11T13:37:09.952Z,8.00
2023-03-11T13:40:07.832Z,8.30
2023-03-11T13:42:45.717Z,7.10
2023-03-11T13:45:32.374Z,6.50
2023-03-11T13:48:07.507Z,6.90
2023-03-11T13:50:44.364Z,7.70
2023-03-11T13:53:23.912Z,7.20
2023-03-11T13:55:52.559Z,6.90
2023-03-11T13:58:26.655Z,8.00
2023-03-11T14:00:58.802Z,8.70
2023-03-11T14:03:32.903Z,10.20
2023-03-11T14:06:08.081Z,9.10
2023-03-11T14:08:38.605Z,9.50
2023-03-11T14:11:18.845Z,8.20
2023-03-11T14:13:50.074Z,8.80
2023-03-11T14:16:23.234Z,8.60
2023-03-11T14:19:08.588Z,9.60
2023-03-11T14:21:38.166Z,11.00
2023-03-11T14:24:06.888Z,11.00
2023-03-11T14:26:36.933Z,10.30
2023-03-11T14:29:12.677Z,10.90
2023-03-11T14:31:44.346Z,10.20
2023-03-11T14:34:17.791Z,10.20
2023-03-11T14:36:51.011Z,10.70
2023-03-11T14:39:35.799Z,10.70
2023-03-11T14:42:13.743Z,10.80
2023-03-11T14:44:45.050Z,11.10
2023-03-11T14:47:25.689Z,10.50
2023-03-11T14:49:56.004Z,10.70
2023-03-11T14:52:37.302Z,10.90
2023-03-11T14:55:15.344Z,11.80
2023-03-11T14:57:49.050Z,12.00
2023-03-11T15:00:24.259Z,11.30
2023-03-11T15:03:03.353Z,10.90
2023-03-11T15:05:42.841Z,10.10
2023-03-11T15:08:12.652Z,10.00
2023-03-11T15:10:40.958Z,10.50
2023-03-11T15:13:16.124Z,10.30
2023-03-11T15:15:47.192Z,10.90
2023-03-11T15:18:25.741Z,10.90
2023-03-11T15:21:15.410Z,10.70
2023-03-11T15:23:51.042Z,11.00
2023-03-11T15:26:24.381Z,11.10
2023-03-11T15:29:00.263Z,11.70
2023-03-11T15:31:32.907Z,13.30
2023-03-11T15:34:28.111Z,12.90
2023-03-11T15:37:20.605Z,12.90
2023-03-11T15:39:53.167Z,13.10
2023-03-11T15:42:25.470Z,13.20
2023-03-11T15:45:09.367Z,13.70
2023-03-11T15:47:38.129Z,13.90
2023-03-11T15:50:27.332Z,13.90
2023-03-11T15:53:00.033Z,13.70
2023-03-11T15:55:29.390Z,12.20
2023-03-11T15:58:06.653Z,12.50
2023-03-11T16:00:36.536Z,12.00
2023-03-11T16:03:05.790Z,11.90
2023-03-11T16:05:33.898Z,12.40
2023-03-11T16:08:01.934Z,13.00
2023-03-11T16:10:31.374Z,13.50
2023-03-11T16:12:59.579Z,13.00
2023-03-11T16:15:30.785Z,14.00
2023-03-11T16:18:02.315Z,13.90
2023-03-11T16:20:38.204Z,13.90
2023-03-11T16:23:12.307Z,14.20
2023-03-11T16:25:42.138Z,13.30
2023-03-11T16:28:15.499Z,13.30
2023-03-11T16:30:44.318Z,13.90
2023-03-11T16:33:12.526Z,14.30
2023-03-11T16:35:40.651Z,14.00
2023-03-11T16:38:09.365Z,14.60
2023-03-11T16:40:38.080Z,15.90
2023-03-11T16:43:11.361Z,16.30
2023-03-11T16:45:39.877Z,17.30
2023-03-11T16:48:08.499Z,17.90
2023-03-11T16:50:37.717Z,17.80
2023-03-11T16:53:06.285Z,17.80
2023-03-11T16:55:34.768Z,17.60
2023-03-11T16:58:07.006Z,17.80
2023-03-11T17:00:35.768Z,18.00
2023-03-11T17:03:04.050Z,19.10
2023-03-11T17:05:32.168Z,20.00
2023-03-11T17:08:04.105Z,21.30
2023-03-11T17:10:38.085Z,22.50
2023-03-11T17:13:08.473Z,23.50
2023-03-11T17:15:38.136Z,24.40
2023-03-11T17:18:07.174Z,26.60
2023-03-11T17:20:37.091Z,26.70
2023-03-11T17:23:05.289Z,27.30
2023-03-11T17:25:34.571Z,28.10
2023-03-11T17:28:03.880Z,28.00
2023-03-11T17:30:37.253Z,29.00
2023-03-11T17:33:06.034Z,30.80
2023-03-11T17:35:35.774Z,34.20
2023-03-11T17:38:03.847Z,37.20
2023-03-11T17:40:32.748Z,41.00
2023-03-11T17:43:01.216Z,43.90
2023-03-11T17:45:29.520Z,46.70
2023-03-11T17:47:58.991Z,51.80
2023-03-11T17:50:27.168Z,61.00
2023-03-11T17:52:56.592Z,65.40
2023-03-11T17:55:24.708Z,67.30
2023-03-11T17:57:53.880Z,67.60
2023-03-11T18:00:23.396Z,64.70
2023-03-11T18:02:54.084Z,64.40
2023-03-11T18:05:25.116Z,69.20
2023-03-11T18:07:53.172Z,71.70
2023-03-11T18:10:21.536Z,75.30
2023-03-11T18:12:49.845Z,76.10
2023-03-11T18:15:19.699Z,84.10
2023-03-11T18:17:49.211Z,91.40
2023-03-11T18:20:18.652Z,85.90
2023-03-11T18:22:48.255Z,91.20
2023-03-11T18:25:16.745Z,99.90
2023-03-11T18:27:44.834Z,99.90
2023-03-11T18:30:14.505Z,99.90
2023-03-11T18:32:43.190Z,99.90
2023-03-11T18:35:13.956Z,99.90
2023-03-11T18:37:42.203Z,99.90
2023-03-11T18:40:13.860Z,99.90
2023-03-11T18:42:41.973Z,99.90
2023-03-11T18:45:12.227Z,99.90
2023-03-11T18:47:40.556Z,99.90
2023-03-11T18:50:09.913Z,99.90
2023-03-11T18:52:38.081Z,99.90
2023-03-11T18:55:07.298Z,99.90
2023-03-11T18:57:36.796Z,99.90
2023-03-11T19:00:05.741Z,99.90
2023-03-11T19:02:33.874Z,99.90
2023-03-11T19:05:02.036Z,99.90
2023-03-11T19:07:30.433Z,99.90
2023-03-11T19:09:58.532Z,99.90
2023-03-11T19:15:24.203Z,99.90
2023-03-11T19:18:05.925Z,99.90
2023-03-11T19:20:35.374Z,99.90
2023-03-11T19:23:03.786Z,99.90
2023-03-11T19:25:32.664Z,99.90
2023-03-11T19:28:00.776Z,99.90
2023-03-11T19:30:30.348Z,99.90
2023-03-11T19:33:00.705Z,99.90
2023-03-11T19:35:28.963Z,99.90
2023-03-11T19:37:59.253Z,99.90
2023-03-11T19:40:31.461Z,99.90
2023-03-11T19:43:00.052Z,99.90
2023-03-11T19:45:31.354Z,99.90
2023-03-11T19:48:00.656Z,99.90
2023-03-11T19:50:28.910Z,99.90
2023-03-11T19:52:56.987Z,99.90
2023-03-11T19:55:25.099Z,99.90
2023-03-11T19:57:53.229Z,99.90
2023-03-11T20:00:22.759Z,99.90
2023-03-11T20:02:56.631Z,99.90
2023-03-11T20:05:25.005Z,99.90
2023-03-11T20:07:53.212Z,99.90
2023-03-11T20:10:21.689Z,99.90
2023-03-11T20:13:01.743Z,99.90
2023-03-11T20:15:31.140Z,99.90
2023-03-11T20:18:01.307Z,99.90
2023-03-11T20:20:29.579Z,99.90
2023-03-11T20:22:58.367Z,99.90
2023-03-11T20:25:29.635Z,99.90
2023-03-11T20:27:57.960Z,99.90
2023-03-11T20:30:26.828Z,99.90
2023-03-11T20:32:55.325Z,99.90
2023-03-11T20:35:25.437Z,99.90
2023-03-11T20:37:53.818Z,99.90
2023-03-11T20:40:23.366Z,99.90
2023-03-11T20:42:51.827Z,99.90
2023-03-11T20:45:21.858Z,99.90
2023-03-11T20:47:50.716Z,99.90
2023-03-11T20:50:19.175Z,99.90
2023-03-11T20:52:48.807Z,99.90
2023-03-11T20:55:17.583Z,99.90
2023-03-11T20:57:45.987Z,99.90
2023-03-11T21:00:15.399Z,99.90
2023-03-11T21:02:44.916Z,99.90
2023-03-11T21:05:14.092Z,99.90
2023-03-11T21:07:42.914Z,99.90
2023-03-11T21:10:14.369Z,99.90
2023-03-11T21:12:43.894Z,99.90
2023-03-11T21:15:13.518Z,99.90
2023-03-11T21:17:41.989Z,99.90
2023-03-11T21:20:13.251Z,99.90
2023-03-11T21:22:41.649Z,99.90
2023-03-11T21:25:12.098Z,99.90
2023-03-11T21:27:40.471Z,99.90
2023-03-11T21:30:10.469Z,99.90
2023-03-11T21:32:38.812Z,99.90
2023-03-11T21:35:07.817Z,99.90
2023-03-11T21:37:36.254Z,99.90
2023-03-11T21:40:05.996Z,99.90
2023-03-11T21:42:35.597Z,99.90
2023-03-11T21:45:04.122Z,99.90
2023-03-11T21:47:32.696Z,99.90
2023-03-11T21:50:00.912Z,99.90
2023-03-11T21:52:29.230Z,99.90
2023-03-11T21:54:58.543Z,99.90
2023-03-11T21:57:27.475Z,99.90
2023-03-11T21:59:58.625Z,99.90
2023-03-11T22:02:28.302Z,99.90
2023-03-11T22:04:56.638Z,99.90
2023-03-11T22:07:25.051Z,99.90
2023-03-11T22:09:53.822Z,99.90
2023-03-11T22:12:22.186Z,99.90
2023-03-11T22:14:50.444Z,99.90
2023-03-11T22:17:20.458Z,99.90
2023-03-11T22:19:48.930Z,99.90
2023-03-11T22:22:17.147Z,99.90
2023-03-11T22:24:45.571Z,99.90
2023-03-11T22:27:13.624Z,99.90
2023-03-11T22:29:43.537Z,99.90
2023-03-11T22:32:11.923Z,99.90
2023-03-11T22:34:42.110Z,99.90
2023-03-11T22:37:11.489Z,99.90
2023-03-11T22:39:39.757Z,99.90
2023-03-11T22:42:08.725Z,99.90
2023-03-11T22:44:36.955Z,99.90
2023-03-11T22:47:06.156Z,99.90
2023-03-11T22:49:36.271Z,99.90
2023-03-11T22:52:07.579Z,99.90
2023-03-11T22:54:37.951Z,99.90
2023-03-11T22:57:06.649Z,99.90
2023-03-11T22:59:34.788Z,99.90
2023-03-11T23:02:03.016Z,99.90
2023-03-11T23:04:31.209Z,99.90
2023-03-11T23:06:59.512Z,99.90
2023-03-11T23:09:29.108Z,99.90
2023-03-11T23:11:57.282Z,99.90
2023-03-11T23:14:37.761Z,99.90
2023-03-11T23:17:12.084Z,99.90
2023-03-11T23:19:40.288Z,99.90
2023-03-11T23:22:08.425Z,99.90
2023-03-11T23:24:38.284Z,99.90
2023-03-11T23:27:06.524Z,99.90
2023-03-11T23:29:34.619Z,99.90
2023-03-11T23:32:02.681Z,99.90
2023-03-11T23:34:30.762Z,99.90
2023-03-11T23:36:58.831Z,99.90
2023-03-11T23:39:26.940Z,99.90
2023-03-11T23:41:56.871Z,99.90
2023-03-11T23:44:25.500Z,99.90
2023-03-11T23:46:53.604Z,99.90
2023-03-11T23:49:21.923Z,99.90
2023-03-11T23:51:50.080Z,99.90
2023-03-11T23:54:18.114Z,99.90
2023-03-11T23:56:46.381Z,99.90
2023-03-11T23:59:15.830Z,99.90
